Time;durP1;ratioP1;P1;durP2;ratioP2;P2;SDS_P1;SDS_P2;PMS_P1;PMS_P2;Temp;Humidity;BMP_temperature;BMP_pressure;BME280_temperature;BME280_humidity;BME280_pressure;Samples;Min_cycle;Max_cycle;Signal;HPM_P1;HPM_P2
2022/08/15 00:02:22;;;;;;;9.15;7.22;;;23.90;99.90;;;;;;5113417;27;20370;-68
2022/08/15 00:04:48;;;;;;;7.50;6.65;;;23.90;99.90;;;;;;5132356;27;20038;-68
2022/08/15 00:07:17;;;;;;;8.13;6.85;;;23.90;99.90;;;;;;5120404;27;20070;-69
2022/08/15 00:09:43;;;;;;;6.75;6.25;;;23.90;99.90;;;;;;5097564;27;20510;-68
2022/08/15 00:12:12;;;;;;;7.30;6.55;;;23.90;99.90;;;;;;5114529;27;20038;-68
2022/08/15 00:14:40;;;;;;;7.53;6.60;;;23.90;99.90;;;;;;5103005;27;20130;-68
2022/08/15 00:17:09;;;;;;;8.07;7.07;;;23.90;99.90;;;;;;5113614;27;20050;-69
2022/08/15 00:19:40;;;;;;;7.95;7.30;;;23.80;99.90;;;;;;5096678;27;20139;-68
2022/08/15 00:22:09;;;;;;;7.47;6.78;;;23.80;99.90;;;;;;5115077;27;20826;-68
2022/08/15 00:24:36;;;;;;;9.60;7.32;;;23.70;99.90;;;;;;5095939;27;20186;-68
2022/08/15 00:27:06;;;;;;;8.90;7.40;;;23.70;99.90;;;;;;5112854;27;20080;-69
2022/08/15 00:29:33;;;;;;;7.85;7.18;;;23.60;99.90;;;;;;5113081;27;20294;-69
2022/08/15 00:31:59;;;;;;;7.63;6.90;;;23.60;99.90;;;;;;5113907;27;20091;-69
2022/08/15 00:34:26;;;;;;;7.40;6.45;;;23.60;99.90;;;;;;5114066;27;20406;-70
2022/08/15 00:36:51;;;;;;;7.35;6.80;;;23.60;99.90;;;;;;5094448;27;20057;-69
2022/08/15 00:39:21;;;;;;;9.25;7.07;;;23.60;99.90;;;;;;5096337;27;20126;-69
2022/08/15 00:41:48;;;;;;;7.53;6.82;;;23.60;99.90;;;;;;5096143;27;20034;-69
2022/08/15 00:44:34;;;;;;;8.18;6.78;;;23.50;99.90;;;;;;5096382;27;20038;-69
2022/08/15 00:47:07;;;;;;;11.02;7.47;;;23.50;99.90;;;;;;5113161;27;20038;-69
2022/08/15 00:49:34;;;;;;;6.80;6.18;;;23.50;99.90;;;;;;5112915;27;20046;-69
2022/08/15 00:52:14;;;;;;;9.40;6.32;;;23.50;99.90;;;;;;5114121;27;20034;-69
2022/08/15 00:54:44;;;;;;;7.65;6.88;;;23.50;99.90;;;;;;5096805;27;20600;-69
2022/08/15 00:57:19;;;;;;;8.13;6.78;;;23.50;99.90;;;;;;5112955;27;20070;-69
2022/08/15 00:59:51;;;;;;;7.20;6.50;;;23.40;99.90;;;;;;5113624;27;20392;-69
2022/08/15 01:02:19;;;;;;;7.57;6.87;;;23.40;99.90;;;;;;5110339;27;20093;-69
2022/08/15 01:04:45;;;;;;;8.32;7.18;;;23.40;99.90;;;;;;5108900;27;20144;-69
2022/08/15 01:07:11;;;;;;;10.30;6.88;;;23.40;99.90;;;;;;5110869;27;20143;-69
2022/08/15 01:09:37;;;;;;;9.18;6.60;;;23.40;99.90;;;;;;5109590;27;20658;-69
2022/08/15 01:12:16;;;;;;;8.85;6.55;;;23.40;99.90;;;;;;5110625;27;20095;-69
2022/08/15 01:14:49;;;;;;;6.50;5.90;;;23.40;99.90;;;;;;5110724;27;21011;-69
2022/08/15 01:17:16;;;;;;;7.25;6.43;;;23.40;99.90;;;;;;5110223;27;20047;-69
2022/08/15 01:19:52;;;;;;;8.00;6.05;;;23.40;99.90;;;;;;5110281;27;20042;-69
2022/08/15 01:22:41;;;;;;;7.10;6.40;;;23.40;99.90;;;;;;5109636;27;20258;-69
2022/08/15 01:25:09;;;;;;;10.70;6.70;;;23.40;99.90;;;;;;5109778;27;20083;-69
2022/08/15 01:27:51;;;;;;;8.15;6.43;;;23.30;99.90;;;;;;5109843;27;20099;-69
2022/08/15 01:30:20;;;;;;;9.50;6.60;;;23.30;99.90;;;;;;5109328;27;20340;-70
2022/08/15 01:32:46;;;;;;;8.65;6.47;;;23.30;99.90;;;;;;5110247;27;20078;-70
2022/08/15 01:35:13;;;;;;;8.63;6.45;;;23.30;99.90;;;;;;5108520;27;20353;-69
2022/08/15 01:37:40;;;;;;;9.90;6.78;;;23.20;99.90;;;;;;5091768;27;20504;-70
2022/08/15 01:40:28;;;;;;;7.57;6.63;;;23.20;99.90;;;;;;5108478;27;20928;-69
2022/08/15 01:42:57;;;;;;;7.38;6.68;;;23.10;99.90;;;;;;5109578;27;20043;-70
2022/08/15 01:45:27;;;;;;;7.68;6.85;;;23.10;99.90;;;;;;5109573;27;20064;-69
2022/08/15 01:48:11;;;;;;;9.02;6.85;;;23.10;99.90;;;;;;5109265;27;20655;-70
2022/08/15 01:50:42;;;;;;;7.63;6.20;;;23.10;99.90;;;;;;5092694;27;20045;-69
2022/08/15 01:53:11;;;;;;;7.40;6.65;;;23.00;99.90;;;;;;5109057;27;20521;-69
2022/08/15 01:55:59;;;;;;;8.20;6.32;;;23.00;99.90;;;;;;5110084;27;20392;-69
2022/08/15 01:58:26;;;;;;;6.97;6.30;;;22.90;99.90;;;;;;5109291;27;20515;-70
2022/08/15 02:00:54;;;;;;;10.50;6.82;;;22.80;99.90;;;;;;5109386;27;20833;-69
2022/08/15 02:03:33;;;;;;;11.40;6.78;;;22.90;99.90;;;;;;5092999;27;20202;-69
2022/08/15 02:06:01;;;;;;;9.35;6.55;;;22.80;99.90;;;;;;5081941;27;20615;-69
2022/08/15 02:08:26;;;;;;;10.32;7.10;;;22.80;99.90;;;;;;5091793;28;20039;-69
2022/08/15 02:10:52;;;;;;;10.20;7.38;;;22.80;99.90;;;;;;5108610;27;20121;-69
2022/08/15 02:13:18;;;;;;;8.82;7.10;;;22.80;99.90;;;;;;5093702;27;20043;-70
2022/08/15 02:15:44;;;;;;;9.88;7.40;;;22.70;99.90;;;;;;5110090;27;20031;-70
2022/08/15 02:18:11;;;;;;;8.02;7.30;;;22.60;99.90;;;;;;5091278;27;20111;-70
2022/08/15 02:20:36;;;;;;;8.30;7.43;;;22.60;99.90;;;;;;5109143;27;20126;-69
2022/08/15 02:23:03;;;;;;;8.23;7.60;;;22.70;99.90;;;;;;5109264;27;20042;-70
2022/08/15 02:25:29;;;;;;;8.55;7.75;;;22.70;99.90;;;;;;5091611;28;20551;-69
2022/08/15 02:27:55;;;;;;;8.50;7.57;;;22.70;99.90;;;;;;5108610;28;20346;-70
2022/08/15 02:30:23;;;;;;;10.82;8.13;;;22.70;99.90;;;;;;5109599;28;20617;-69
2022/08/15 02:32:49;;;;;;;11.93;8.23;;;22.60;99.90;;;;;;5110159;28;20544;-69
2022/08/15 02:35:16;;;;;;;8.75;7.95;;;22.70;99.90;;;;;;5108915;28;20103;-69
2022/08/15 02:37:43;;;;;;;9.18;8.20;;;22.60;99.90;;;;;;5091619;28;20039;-70
2022/08/15 02:40:12;;;;;;;9.85;8.20;;;22.60;99.90;;;;;;5083967;28;20046;-70
2022/08/15 02:42:39;;;;;;;10.80;8.48;;;22.70;99.90;;;;;;5083090;28;20399;-69
2022/08/15 02:45:12;;;;;;;9.40;8.50;;;22.70;99.90;;;;;;5108991;28;20987;-69
2022/08/15 02:47:42;;;;;;;10.10;8.48;;;22.70;99.90;;;;;;5108589;28;20302;-69
2022/08/15 02:50:08;;;;;;;10.30;8.65;;;22.60;99.90;;;;;;5108943;28;20467;-69
2022/08/15 02:52:39;;;;;;;9.50;8.70;;;22.50;99.90;;;;;;5126399;27;20061;-70
2022/08/15 02:55:07;;;;;;;9.27;8.55;;;22.40;99.90;;;;;;5109479;28;20043;-69
2022/08/15 02:57:32;;;;;;;9.38;8.48;;;22.40;99.90;;;;;;5096588;28;20035;-69
2022/08/15 02:59:58;;;;;;;10.48;8.60;;;22.30;99.90;;;;;;5110003;28;20263;-69
2022/08/15 03:02:25;;;;;;;10.10;8.75;;;22.30;99.90;;;;;;5108830;28;20302;-69
2022/08/15 03:04:51;;;;;;;9.73;8.65;;;22.30;99.90;;;;;;5085048;28;21073;-70
2022/08/15 03:07:17;;;;;;;10.02;9.02;;;22.30;99.90;;;;;;5108747;28;20130;-69
2022/08/15 03:09:43;;;;;;;9.82;8.93;;;22.30;99.90;;;;;;5091924;28;20508;-69
2022/08/15 03:12:13;;;;;;;15.52;9.20;;;22.30;99.90;;;;;;5091439;28;20031;-69
2022/08/15 03:14:40;;;;;;;10.68;9.20;;;22.40;99.90;;;;;;5108858;28;20082;-69
2022/08/15 03:17:09;;;;;;;11.07;9.20;;;22.40;99.90;;;;;;5077215;28;20585;-69
2022/08/15 03:19:37;;;;;;;10.23;9.25;;;22.40;99.90;;;;;;5109805;28;20884;-69
2022/08/15 03:22:03;;;;;;;10.75;9.65;;;22.50;99.90;;;;;;5093269;27;20031;-70
2022/08/15 03:24:30;;;;;;;13.00;9.95;;;22.50;99.90;;;;;;5096036;27;20034;-69
2022/08/15 03:26:56;;;;;;;10.27;9.27;;;22.50;99.90;;;;;;5113726;27;20062;-69
2022/08/15 03:29:23;;;;;;;11.65;10.25;;;22.60;99.90;;;;;;5113386;27;20176;-69
2022/08/15 03:31:51;;;;;;;11.77;10.68;;;22.70;99.90;;;;;;5096573;27;20063;-69
2022/08/15 03:34:18;;;;;;;11.55;10.35;;;22.70;99.90;;;;;;5096705;27;20059;-70
2022/08/15 03:36:46;;;;;;;12.73;11.32;;;22.60;99.90;;;;;;5081916;27;20043;-69
2022/08/15 03:39:15;;;;;;;12.23;11.13;;;22.60;99.90;;;;;;5094504;27;20488;-69
2022/08/15 03:41:43;;;;;;;10.27;9.20;;;22.60;99.90;;;;;;5094080;27;20126;-69
2022/08/15 03:44:09;;;;;;;10.48;9.57;;;22.60;99.90;;;;;;5112060;27;20043;-69
2022/08/15 03:46:35;;;;;;;11.68;10.48;;;22.70;99.90;;;;;;5112967;27;20386;-69
2022/08/15 03:49:01;;;;;;;11.30;10.20;;;22.60;99.90;;;;;;5093781;27;20153;-70
2022/08/15 03:51:27;;;;;;;10.45;9.63;;;22.60;99.90;;;;;;5112264;27;20389;-69
2022/08/15 03:53:59;;;;;;;11.43;9.80;;;22.60;99.90;;;;;;5112444;27;20039;-69
2022/08/15 03:56:28;;;;;;;11.27;10.00;;;22.50;99.90;;;;;;5095512;27;20066;-68
2022/08/15 03:58:55;;;;;;;10.35;9.45;;;22.40;99.90;;;;;;5128740;27;20049;-69
2022/08/15 04:01:24;;;;;;;11.95;10.85;;;22.50;99.90;;;;;;5112858;27;20456;-70
2022/08/15 04:03:51;;;;;;;11.52;10.00;;;22.50;99.90;;;;;;5094300;27;20047;-69
2022/08/15 04:06:22;;;;;;;11.93;10.77;;;22.50;99.90;;;;;;5112025;27;20047;-70
2022/08/15 04:08:50;;;;;;;11.55;10.45;;;22.40;99.90;;;;;;5111506;27;20039;-70
2022/08/15 04:11:17;;;;;;;11.60;10.50;;;22.40;99.90;;;;;;5093942;27;20046;-69
2022/08/15 04:13:44;;;;;;;12.07;10.93;;;22.40;99.90;;;;;;5094127;27;20035;-70
2022/08/15 04:16:10;;;;;;;12.00;11.05;;;22.40;99.90;;;;;;5098496;27;20625;-69
2022/08/15 04:18:36;;;;;;;11.63;10.70;;;22.40;99.90;;;;;;5111908;27;20152;-69
2022/08/15 04:21:05;;;;;;;11.48;10.27;;;22.50;99.90;;;;;;5111162;27;20071;-69
2022/08/15 04:23:32;;;;;;;11.43;10.50;;;22.40;99.90;;;;;;5111958;27;20115;-69
2022/08/15 04:25:57;;;;;;;10.63;9.70;;;22.40;99.90;;;;;;5112315;27;20073;-69
2022/08/15 04:28:25;;;;;;;12.57;11.25;;;22.40;99.90;;;;;;5110905;27;20657;-70
2022/08/15 04:30:51;;;;;;;11.73;10.65;;;22.40;99.90;;;;;;5094779;27;20135;-69
2022/08/15 04:33:19;;;;;;;10.82;9.75;;;22.30;99.90;;;;;;5111469;27;20043;-69
2022/08/15 04:35:48;;;;;;;11.48;10.43;;;22.30;99.90;;;;;;5110939;27;20036;-69
2022/08/15 04:38:15;;;;;;;12.43;10.68;;;22.20;99.90;;;;;;5111591;27;20031;-69
2022/08/15 04:40:42;;;;;;;13.25;11.13;;;22.10;99.90;;;;;;5095663;27;20516;-70
2022/08/15 04:43:09;;;;;;;11.95;10.85;;;22.10;99.90;;;;;;5093152;27;20437;-69
2022/08/15 04:45:35;;;;;;;12.65;11.43;;;22.10;99.90;;;;;;5111038;27;20113;-69
2022/08/15 04:48:02;;;;;;;12.43;11.10;;;22.10;99.90;;;;;;5111769;27;20119;-69
2022/08/15 04:50:33;;;;;;;13.38;12.00;;;22.10;99.90;;;;;;5095074;27;20027;-69
2022/08/15 04:52:59;;;;;;;12.02;10.85;;;22.00;99.90;;;;;;5094202;27;20435;-69
2022/08/15 04:55:26;;;;;;;12.23;10.93;;;22.00;99.90;;;;;;5094567;27;20043;-68
2022/08/15 04:57:53;;;;;;;14.38;11.30;;;21.90;99.90;;;;;;5110862;27;20043;-69
2022/08/15 05:00:21;;;;;;;11.82;10.77;;;22.00;99.90;;;;;;5094065;27;20078;-69
2022/08/15 05:03:04;;;;;;;16.08;11.70;;;21.90;99.90;;;;;;5111432;27;20454;-69
2022/08/15 05:05:32;;;;;;;16.70;12.13;;;21.90;99.90;;;;;;5108588;27;20424;-68
2022/08/15 05:07:58;;;;;;;14.73;11.75;;;21.80;99.90;;;;;;5108966;27;20256;-69
2022/08/15 05:10:24;;;;;;;12.82;11.48;;;21.80;99.90;;;;;;5091960;27;20481;-68
2022/08/15 05:12:50;;;;;;;16.58;11.90;;;21.70;99.90;;;;;;5090402;27;20104;-68
2022/08/15 05:15:18;;;;;;;14.98;11.32;;;21.70;99.90;;;;;;5108431;27;20047;-69
2022/08/15 05:17:45;;;;;;;11.75;10.80;;;21.70;99.90;;;;;;5108026;27;20122;-69
2022/08/15 05:20:12;;;;;;;26.45;13.40;;;21.70;99.90;;;;;;5108674;27;20055;-68
2022/08/15 05:22:58;;;;;;;15.13;12.02;;;21.70;99.90;;;;;;5112370;27;20197;-68
2022/08/15 05:25:24;;;;;;;13.63;12.20;;;21.70;99.90;;;;;;5110910;27;20418;-69
2022/08/15 05:27:51;;;;;;;13.10;11.90;;;21.70;99.90;;;;;;5109071;27;20057;-69
2022/08/15 05:30:19;;;;;;;13.43;12.05;;;21.70;99.90;;;;;;5110795;27;20039;-68
2022/08/15 05:32:45;;;;;;;13.30;11.98;;;21.70;99.90;;;;;;5109678;27;20039;-69
2022/08/15 05:35:11;;;;;;;12.77;11.45;;;21.70;99.90;;;;;;5109564;27;20553;-68
2022/08/15 05:37:37;;;;;;;13.70;12.07;;;21.80;99.90;;;;;;5076529;27;20528;-69
2022/08/15 05:40:06;;;;;;;13.52;12.23;;;21.80;99.90;;;;;;5093024;27;20123;-68
2022/08/15 05:43:01;;;;;;;13.32;12.13;;;21.90;99.90;;;;;;5109267;27;20039;-68
2022/08/15 05:45:39;;;;;;;13.95;12.75;;;22.00;99.90;;;;;;5110279;27;20548;-68
2022/08/15 05:48:16;;;;;;;13.77;12.50;;;22.10;99.90;;;;;;5085294;27;20353;-68
2022/08/15 05:51:00;;;;;;;13.57;12.30;;;22.30;99.90;;;;;;5107966;27;20121;-68
2022/08/15 05:53:41;;;;;;;13.00;11.90;;;22.40;99.90;;;;;;5107220;27;20495;-68
2022/08/15 05:56:41;;;;;;;12.90;11.70;;;22.50;99.90;;;;;;5107979;27;20390;-68
2022/08/15 05:59:14;;;;;;;12.45;11.25;;;22.60;99.90;;;;;;5090619;27;20673;-69
2022/08/15 06:02:04;;;;;;;12.02;11.02;;;22.70;99.90;;;;;;5106632;27;20119;-68
2022/08/15 06:05:01;;;;;;;12.88;11.50;;;22.70;99.90;;;;;;5107267;27;20051;-68
2022/08/15 06:07:27;;;;;;;12.48;11.38;;;22.70;99.90;;;;;;5108269;27;20077;-68
2022/08/15 06:10:23;;;;;;;12.30;11.18;;;22.70;99.90;;;;;;5108833;27;20054;-66
2022/08/15 06:12:51;;;;;;;12.45;11.20;;;22.80;99.90;;;;;;5091533;28;20602;-68
2022/08/15 06:15:36;;;;;;;11.57;10.55;;;22.80;99.90;;;;;;5110091;27;20275;-68
2022/08/15 06:18:08;;;;;;;11.70;10.68;;;22.80;99.90;;;;;;5099342;27;20162;-68
2022/08/15 06:20:58;;;;;;;11.48;10.40;;;22.90;99.90;;;;;;5109377;27;20332;-68
2022/08/15 06:23:48;;;;;;;11.63;10.65;;;23.00;99.90;;;;;;5108557;27;20131;-67
2022/08/15 06:26:32;;;;;;;12.18;11.10;;;23.00;99.90;;;;;;5081925;27;20601;-68
2022/08/15 06:29:19;;;;;;;11.73;10.48;;;23.10;99.90;;;;;;5097453;28;20050;-68
2022/08/15 06:31:57;;;;;;;11.50;10.43;;;23.10;99.90;;;;;;5104201;28;20095;-68
2022/08/15 06:34:49;;;;;;;11.20;10.18;;;23.20;99.90;;;;;;5094375;28;20065;-68
2022/08/15 06:37:31;;;;;;;10.20;9.25;;;23.20;99.90;;;;;;5105202;28;20047;-68
2022/08/15 06:40:20;;;;;;;11.32;10.20;;;23.30;99.90;;;;;;5106795;28;20559;-69
2022/08/15 06:42:47;;;;;;;11.38;10.38;;;23.40;99.90;;;;;;5107170;28;20035;-68
2022/08/15 06:45:26;;;;;;;11.40;10.25;;;23.40;99.90;;;;;;5106531;28;20067;-69
2022/08/15 06:48:01;;;;;;;11.63;10.18;;;23.50;99.90;;;;;;5090827;28;20524;-69
2022/08/15 06:50:33;;;;;;;12.13;10.23;;;23.70;99.90;;;;;;5107834;28;20359;-68
2022/08/15 06:53:14;;;;;;;13.90;10.65;;;23.90;99.90;;;;;;5106671;28;20405;-69
2022/08/15 06:56:02;;;;;;;10.63;9.50;;;24.20;99.90;;;;;;5108940;28;20367;-69
2022/08/15 06:59:05;;;;;;;11.15;10.05;;;24.50;99.90;;;;;;5085890;27;20045;-68
2022/08/15 07:01:51;;;;;;;10.77;9.88;;;24.60;99.90;;;;;;5112483;27;20058;-69
2022/08/15 07:04:32;;;;;;;10.55;9.52;;;24.70;99.90;;;;;;5080182;27;20051;-68
2022/08/15 07:07:22;;;;;;;10.05;8.82;;;24.70;99.90;;;;;;5114554;27;20250;-66
2022/08/15 07:10:13;;;;;;;9.38;8.57;;;24.90;99.90;;;;;;5096972;27;20166;-66
2022/08/15 07:12:50;;;;;;;13.50;8.45;;;24.80;99.90;;;;;;5116229;27;20099;-67
2022/08/15 07:15:26;;;;;;;11.50;8.77;;;24.80;99.90;;;;;;5101223;27;20099;-66
2022/08/15 07:17:58;;;;;;;9.18;8.27;;;24.70;99.90;;;;;;5113040;27;20175;-67
2022/08/15 07:20:24;;;;;;;9.35;8.52;;;24.50;99.90;;;;;;5113526;27;20121;-68
2022/08/15 07:22:51;;;;;;;9.00;8.30;;;24.40;99.90;;;;;;5111835;27;20035;-67
2022/08/15 07:25:20;;;;;;;10.48;8.38;;;24.30;99.90;;;;;;5086033;27;20314;-67
2022/08/15 07:27:58;;;;;;;9.07;8.15;;;24.20;99.90;;;;;;5111592;27;20309;-69
2022/08/15 07:30:54;;;;;;;9.73;8.40;;;24.50;99.90;;;;;;5111656;27;20035;-66
2022/08/15 07:33:27;;;;;;;8.35;7.65;;;24.60;99.90;;;;;;5111750;27;20039;-67
2022/08/15 07:36:07;;;;;;;8.00;7.30;;;24.80;99.90;;;;;;5112323;27;20454;-68
2022/08/15 07:38:32;;;;;;;11.07;9.00;;;24.90;99.90;;;;;;5112767;27;20082;-68
2022/08/15 07:41:22;;;;;;;9.43;8.35;;;24.80;99.90;;;;;;5111905;27;20268;-68
2022/08/15 07:43:48;;;;;;;10.50;8.70;;;24.70;99.90;;;;;;5103959;27;20587;-68
2022/08/15 07:46:19;;;;;;;9.25;8.30;;;24.70;99.90;;;;;;5112601;27;20133;-67
2022/08/15 07:49:07;;;;;;;9.20;7.75;;;24.80;99.90;;;;;;5112373;27;20474;-68
2022/08/15 07:51:44;;;;;;;9.82;8.07;;;24.80;99.90;;;;;;5112638;27;20035;-68
2022/08/15 07:54:44;;;;;;;8.35;7.53;;;25.00;99.90;;;;;;5112371;27;20039;-69
2022/08/15 07:57:22;;;;;;;8.95;8.15;;;25.20;99.90;;;;;;5103906;27;20191;-68
2022/08/15 08:00:12;;;;;;;8.20;7.60;;;25.30;99.90;;;;;;5111695;27;20535;-68
2022/08/15 08:02:58;;;;;;;7.65;6.95;;;25.40;99.90;;;;;;5111703;27;20099;-68
2022/08/15 08:05:34;;;;;;;9.02;7.90;;;25.70;99.90;;;;;;5103041;27;20039;-68
2022/08/15 08:08:05;;;;;;;7.53;6.90;;;25.90;99.90;;;;;;5111507;27;20425;-68
2022/08/15 08:10:43;;;;;;;8.73;7.25;;;26.30;99.90;;;;;;5093262;27;20035;-68
2022/08/15 08:13:41;;;;;;;8.00;7.20;;;26.70;99.90;;;;;;5086972;27;20487;-68
2022/08/15 08:16:28;;;;;;;7.05;6.20;;;26.90;99.90;;;;;;5113360;27;20043;-69
2022/08/15 08:19:09;;;;;;;6.65;6.05;;;26.90;99.90;;;;;;5091496;27;20748;-68
2022/08/15 08:22:08;;;;;;;5.90;5.40;;;26.70;99.90;;;;;;5114184;27;20047;-68
2022/08/15 08:25:06;;;;;;;6.22;5.63;;;26.50;99.90;;;;;;5113217;27;20690;-68
2022/08/15 08:27:44;;;;;;;7.75;5.95;;;26.40;99.90;;;;;;5096943;27;20035;-68
2022/08/15 08:30:32;;;;;;;7.00;6.45;;;26.40;99.90;;;;;;5111923;27;20555;-68
2022/08/15 08:33:13;;;;;;;5.35;4.85;;;26.70;99.90;;;;;;5111114;27;20318;-68
2022/08/15 08:35:41;;;;;;;5.68;5.18;;;26.90;99.90;;;;;;5109206;27;20072;-69
2022/08/15 08:38:20;;;;;;;6.55;4.50;;;27.10;99.90;;;;;;5110349;27;20047;-69
2022/08/15 08:41:33;;;;;;;4.03;3.72;;;27.40;99.90;;;;;;5110589;27;20043;-67
2022/08/15 08:44:33;;;;;;;4.63;4.28;;;28.00;99.90;;;;;;5109972;27;20047;-66
2022/08/15 08:47:13;;;;;;;5.93;4.25;;;28.70;99.90;;;;;;5110385;27;20043;-67
2022/08/15 08:49:59;;;;;;;6.28;4.18;;;28.80;99.90;;;;;;5100409;27;20043;-67
2022/08/15 08:52:54;;;;;;;6.07;4.13;;;28.90;99.90;;;;;;5110591;27;20047;-66
2022/08/15 08:55:29;;;;;;;5.22;3.90;;;28.80;99.90;;;;;;5109798;27;20042;-67
2022/08/15 08:57:57;;;;;;;4.70;3.80;;;29.10;99.90;;;;;;5110144;27;20044;-67
2022/08/15 09:00:31;;;;;;;6.82;5.28;;;28.90;99.90;;;;;;5110409;27;20103;-68
2022/08/15 09:03:11;;;;;;;6.40;3.95;;;28.90;99.90;;;;;;5090886;27;20517;-68
2022/08/15 09:05:51;;;;;;;5.13;4.10;;;28.80;99.90;;;;;;5114035;27;20804;-68
2022/08/15 09:08:38;;;;;;;4.95;3.72;;;28.80;99.90;;;;;;5112948;27;20045;-68
2022/08/15 09:11:32;;;;;;;7.32;3.75;;;29.00;99.90;;;;;;5112343;27;21173;-68
2022/08/15 09:14:08;;;;;;;3.83;3.33;;;28.80;99.90;;;;;;5114676;27;20171;-68
2022/08/15 09:16:38;;;;;;;3.30;2.88;;;29.10;99.90;;;;;;5131009;27;20049;-68
2022/08/15 09:19:19;;;;;;;5.60;2.90;;;29.00;99.90;;;;;;5111588;27;20158;-68
2022/08/15 09:21:47;;;;;;;3.42;2.75;;;28.80;99.90;;;;;;5112036;27;20042;-68
2022/08/15 09:24:16;;;;;;;2.33;2.10;;;28.50;99.90;;;;;;5088885;27;20038;-67
2022/08/15 09:26:49;;;;;;;2.83;2.03;;;28.30;99.90;;;;;;5112457;27;20046;-68
2022/08/15 09:29:32;;;;;;;2.75;2.35;;;27.90;99.90;;;;;;5112004;27;20038;-70
2022/08/15 09:32:00;;;;;;;3.15;2.45;;;28.10;99.90;;;;;;5111644;27;20077;-69
2022/08/15 09:34:42;;;;;;;2.90;1.80;;;28.10;99.90;;;;;;5111649;27;20041;-67
2022/08/15 09:37:36;;;;;;;1.60;1.50;;;28.10;99.90;;;;;;5111422;27;20031;-67
2022/08/15 09:40:31;;;;;;;3.50;1.80;;;27.90;99.90;;;;;;5114581;27;20046;-69
2022/08/15 09:43:16;;;;;;;2.80;2.00;;;27.60;99.90;;;;;;5085501;27;20305;-69
2022/08/15 09:45:55;;;;;;;2.30;2.10;;;27.60;99.90;;;;;;5113309;27;20137;-69
2022/08/15 09:48:37;;;;;;;2.25;2.00;;;27.60;99.90;;;;;;5113066;27;20057;-68
2022/08/15 09:51:12;;;;;;;2.78;2.15;;;27.80;99.90;;;;;;5131638;27;20035;-68
2022/08/15 09:54:05;;;;;;;2.03;1.80;;;28.10;99.90;;;;;;5089363;27;20030;-69
2022/08/15 09:56:37;;;;;;;2.40;1.75;;;28.60;99.90;;;;;;5094048;27;20035;-68
2022/08/15 09:59:23;;;;;;;1.70;1.60;;;28.90;99.90;;;;;;5112591;27;20385;-69
2022/08/15 10:02:09;;;;;;;1.75;1.60;;;29.40;99.90;;;;;;5116404;27;20062;-69
2022/08/15 10:05:01;;;;;;;3.15;1.63;;;30.00;99.90;;;;;;5109025;27;20046;-68
2022/08/15 10:07:45;;;;;;;2.47;1.95;;;30.30;99.90;;;;;;5102443;27;20064;-69
2022/08/15 10:10:22;;;;;;;2.15;1.45;;;29.80;99.90;;;;;;5130193;27;20381;-69
2022/08/15 10:13:26;;;;;;;2.05;1.70;;;29.30;99.90;;;;;;5093262;27;20035;-69
2022/08/15 10:15:53;;;;;;;2.00;1.42;;;28.90;99.90;;;;;;5088455;27;20254;-68
2022/08/15 10:18:22;;;;;;;1.92;1.80;;;29.00;99.90;;;;;;5085957;27;20047;-68
2022/08/15 10:20:50;;;;;;;1.70;1.40;;;29.20;99.90;;;;;;5100826;27;20459;-68
2022/08/15 10:23:20;;;;;;;2.35;1.50;;;29.60;99.90;;;;;;5113895;27;20038;-68
2022/08/15 10:25:48;;;;;;;1.70;1.60;;;29.70;99.90;;;;;;5096752;27;20099;-68
2022/08/15 10:28:14;;;;;;;2.95;1.55;;;30.10;99.90;;;;;;5112684;27;20118;-69
2022/08/15 10:31:06;;;;;;;1.92;1.48;;;30.20;99.90;;;;;;5114489;27;20462;-68
2022/08/15 10:33:32;;;;;;;1.60;1.42;;;30.10;99.90;;;;;;5096081;27;20354;-67
2022/08/15 10:36:13;;;;;;;3.17;1.80;;;29.50;99.90;;;;;;5112119;27;20047;-67
2022/08/15 10:39:00;;;;;;;3.00;1.98;;;29.60;99.90;;;;;;5094538;27;20103;-69
2022/08/15 10:41:48;;;;;;;3.25;1.67;;;30.00;99.90;;;;;;5113356;27;20050;-69
2022/08/15 10:44:42;;;;;;;2.78;2.17;;;30.20;99.90;;;;;;5112930;27;20512;-69
2022/08/15 10:47:38;;;;;;;2.92;2.65;;;30.60;99.90;;;;;;5113478;27;20334;-69
2022/08/15 10:50:22;;;;;;;3.22;2.97;;;30.40;99.90;;;;;;5081818;27;20049;-69
2022/08/15 10:53:18;;;;;;;3.13;2.75;;;29.90;99.90;;;;;;5096470;27;20062;-69
2022/08/15 10:55:44;;;;;;;3.40;3.10;;;29.70;99.90;;;;;;5112806;27;20038;-68
2022/08/15 10:58:24;;;;;;;5.07;3.50;;;29.60;99.90;;;;;;5095663;27;20346;-68
2022/08/15 11:01:04;;;;;;;5.32;3.50;;;29.70;99.90;;;;;;5112361;27;20085;-69
2022/08/15 11:03:49;;;;;;;4.10;3.10;;;29.80;99.90;;;;;;5111250;27;20058;-69
2022/08/15 11:06:17;;;;;;;2.90;2.70;;;30.10;99.90;;;;;;5111651;27;20333;-68
2022/08/15 11:08:53;;;;;;;4.72;2.70;;;30.60;99.90;;;;;;5113053;27;20914;-68
2022/08/15 11:11:23;;;;;;;4.75;2.90;;;30.90;99.90;;;;;;5113106;27;20450;-69
2022/08/15 11:13:52;;;;;;;2.78;2.58;;;31.30;99.90;;;;;;5095313;27;20126;-68
2022/08/15 11:16:35;;;;;;;3.72;2.80;;;31.20;99.90;;;;;;5112161;27;20046;-69
2022/08/15 11:19:14;;;;;;;3.50;3.20;;;30.40;99.90;;;;;;5096522;27;20569;-68
2022/08/15 11:21:46;;;;;;;3.28;3.08;;;30.10;99.90;;;;;;5112906;27;20054;-69
2022/08/15 11:24:12;;;;;;;4.03;3.55;;;29.90;99.90;;;;;;5112317;27;20047;-69
2022/08/15 11:26:45;;;;;;;4.00;3.60;;;29.90;99.90;;;;;;5095535;27;20341;-69
2022/08/15 11:29:24;;;;;;;5.20;3.80;;;29.80;99.90;;;;;;5096028;27;20042;-69
2022/08/15 11:31:54;;;;;;;4.97;3.85;;;29.70;99.90;;;;;;5112439;27;20126;-69
2022/08/15 11:34:26;;;;;;;5.05;4.45;;;29.80;99.90;;;;;;5095036;27;20042;-69
2022/08/15 11:37:01;;;;;;;4.13;3.78;;;30.20;99.90;;;;;;5113066;27;20375;-68
2022/08/15 11:39:29;;;;;;;4.30;3.90;;;30.60;99.90;;;;;;5096106;27;20496;-69
2022/08/15 11:41:58;;;;;;;4.70;4.30;;;31.10;99.90;;;;;;5112374;27;20342;-69
2022/08/15 11:44:33;;;;;;;4.93;4.45;;;31.10;99.90;;;;;;5115194;27;20509;-69
2022/08/15 11:46:59;;;;;;;5.90;5.40;;;30.90;99.90;;;;;;5116288;27;20786;-69
2022/08/15 11:49:30;;;;;;;5.80;5.20;;;30.50;99.90;;;;;;5099769;27;20043;-69
2022/08/15 11:52:03;;;;;;;5.80;5.22;;;30.00;99.90;;;;;;5115702;27;20439;-68
2022/08/15 11:54:29;;;;;;;5.10;4.70;;;29.70;99.90;;;;;;5115912;27;20043;-69
2022/08/15 11:57:04;;;;;;;5.82;5.40;;;29.50;99.90;;;;;;5115966;27;20038;-69
2022/08/15 11:59:39;;;;;;;6.00;5.40;;;29.60;99.90;;;;;;5099204;27;20077;-69
2022/08/15 12:02:07;;;;;;;5.03;4.65;;;29.50;99.90;;;;;;5117526;27;20152;-69
2022/08/15 12:04:35;;;;;;;4.82;4.40;;;29.50;99.90;;;;;;5115518;27;20043;-70
2022/08/15 12:07:16;;;;;;;5.03;4.50;;;29.30;99.90;;;;;;5116078;27;20043;-69
2022/08/15 12:09:52;;;;;;;5.40;4.90;;;29.40;99.90;;;;;;5116101;27;20233;-69
2022/08/15 12:12:25;;;;;;;4.50;4.20;;;29.20;99.90;;;;;;5132376;27;20035;-69
2022/08/15 12:14:55;;;;;;;5.90;4.32;;;29.20;99.90;;;;;;5117039;27;20042;-69
2022/08/15 12:17:28;;;;;;;5.65;4.70;;;29.10;99.90;;;;;;5098515;27;20046;-69
2022/08/15 12:19:55;;;;;;;4.90;4.50;;;29.10;99.90;;;;;;5118550;27;20091;-68
2022/08/15 12:22:38;;;;;;;9.38;4.38;;;29.00;99.90;;;;;;5113010;27;20383;-68
2022/08/15 12:25:07;;;;;;;4.22;3.92;;;29.10;99.90;;;;;;5122092;27;20386;-69
2022/08/15 12:27:35;;;;;;;4.40;3.75;;;29.20;99.90;;;;;;5104162;27;20360;-69
2022/08/15 12:30:08;;;;;;;3.70;3.20;;;29.30;99.90;;;;;;5121936;27;20046;-68
2022/08/15 12:32:35;;;;;;;4.30;3.20;;;29.60;99.90;;;;;;5121750;27;20142;-68
2022/08/15 12:35:05;;;;;;;3.13;2.65;;;30.00;99.90;;;;;;5124724;27;20046;-69
2022/08/15 12:37:31;;;;;;;5.18;4.68;;;30.50;99.90;;;;;;5105012;27;20069;-69
2022/08/15 12:39:59;;;;;;;11.45;7.47;;;30.60;99.90;;;;;;5105882;27;20358;-69
2022/08/15 12:42:27;;;;;;;8.63;7.53;;;30.80;99.90;;;;;;5124173;27;20053;-69
2022/08/15 12:44:56;;;;;;;8.25;7.32;;;30.80;99.40;;;;;;5106569;27;20034;-69
2022/08/15 12:47:26;;;;;;;11.18;8.55;;;30.90;98.70;;;;;;5105899;27;20492;-68
2022/08/15 12:49:51;;;;;;;8.30;7.50;;;31.20;96.50;;;;;;5141335;27;20572;-68
2022/08/15 12:52:19;;;;;;;9.00;7.55;;;31.00;96.30;;;;;;5105492;27;20043;-69
2022/08/15 12:54:46;;;;;;;8.23;7.43;;;31.00;96.40;;;;;;5122087;27;20277;-69
2022/08/15 12:57:12;;;;;;;8.43;7.60;;;30.90;95.90;;;;;;5122961;27;20034;-68
2022/08/15 12:59:38;;;;;;;7.30;6.40;;;30.80;95.00;;;;;;5105294;27;20122;-69
2022/08/15 13:02:05;;;;;;;9.02;7.57;;;30.60;96.40;;;;;;5123676;27;20134;-68
2022/08/15 13:04:31;;;;;;;7.97;7.18;;;30.60;95.30;;;;;;5106639;27;20552;-68
2022/08/15 13:06:59;;;;;;;7.38;6.55;;;30.20;96.20;;;;;;5123454;27;20129;-67
2022/08/15 13:09:28;;;;;;;8.43;6.65;;;30.20;96.10;;;;;;5105218;27;20087;-68
2022/08/15 13:11:55;;;;;;;7.68;6.97;;;29.80;95.10;;;;;;5122791;27;20122;-68
2022/08/15 13:14:21;;;;;;;8.15;6.97;;;29.90;97.10;;;;;;5120315;27;20047;-68
2022/08/15 13:16:48;;;;;;;8.40;6.75;;;29.80;97.10;;;;;;5119899;27;20038;-68